Дата Пункты Температура Давл., мм. Влажн., % Ветер Погодные явления
Воздуха Воды Направл. Скорость
03.03.19 11:00 Одесса 2.0 3.0 762 60 Пд-С 1 11 ГОДИН
03.03.19 08:00 Одесса -2.0 3.0 761 69 Пн 0 08 ГОДИН
03.03.19 05:00 Одесса -4.0 3.0 761 76 З 1 05 ГОДИН
03.03.19 02:00 Одесса -3.0 3.0 760 72 Пн 0 02 ГОДИНИ
02.03.19 11:00 Одесса -2.0 3.0 759 65 З 1 23 ГОДИНИ
02.03.19 05:00 Одесса 2.0 3.0 756 43 Пн-З 2 17 ГОДИН
02.03.19 02:00 Одесса 3.0 3.0 755 47 Пн-З 2 14 ГОДИН
02.03.19 11:00 Одесса 2.0 3.0 754 47 Пн 2 11 ГОДИН
02.03.19 08:00 Одесса 1.0 3.0 753 61 Пн 3 08 ГОДИН
02.03.19 05:00 Одесса 3.0 3.0 752 64 Пн-З 2 05 ГОДИН
02.03.19 02:00 Одесса 4.0 3.0 751 58 Пн-З 1 02 ГОДИНИ
01.03.19 11:00 Одесса 4.0 3.0 751 63 Пд-З 2 23 ГОДИНИ
01.03.19 08:00 Одесса 4.0 3.0 750 61 Пн 0 20 ГОДИН
01.03.19 05:00 Одесса 7.0 3.0 749 49 Пн 2 17 ГОДИН
01.03.19 02:00 Одесса 8.0 3.0 748 42 Пн-З 4 14 ГОДИН
01.03.19 11:00 Одесса 7.0 3.0 748 49 Пн-З 4 11 ГОДИН
01.03.19 08:00 Одесса 6.0 3.0 747 64 Пн-З 5 08 ГОДИН
01.03.19 05:00 Одесса 7.0 3.0 745 66 З 3 05 ГОДИН
01.03.19 02:00 Одесса 8.0 3.0 745 55 З 3 02 ГОДИНИ
28.02.19 11:00 Одесса 10.0 3.0 744 47 З 2 23 ГОДИНИ
Количество строк
1 2 3 4 5 6 7 8 9 10
Page 9 of 472